createdAt,value
2023-09-17T00:55:19.585Z,100564.80
2023-09-17T00:58:25.394Z,100564.49
2023-09-17T01:05:06.086Z,100560.23
2023-09-17T01:32:33.149Z,100545.52
2023-09-17T01:45:46.965Z,100547.77
2023-09-17T01:51:40.815Z,100542.75
2023-09-17T01:54:42.255Z,100537.84
2023-09-17T01:57:43.876Z,100542.02
2023-09-17T02:00:34.059Z,100535.36
2023-09-17T02:03:12.899Z,100533.10
2023-09-17T02:06:00.580Z,100527.90
2023-09-17T02:08:40.810Z,100526.66
2023-09-17T02:17:26.262Z,100522.59
2023-09-17T02:20:23.130Z,100523.81
2023-09-17T02:25:59.608Z,100519.11
2023-09-17T02:28:33.637Z,100516.52
2023-09-17T02:31:04.601Z,100512.66
2023-09-17T02:33:36.708Z,100515.42
2023-09-17T02:36:10.086Z,100516.45
2023-09-17T02:38:52.927Z,100515.23
2023-09-17T02:41:35.378Z,100511.83
2023-09-17T02:44:07.283Z,100512.00
2023-09-17T02:46:38.860Z,100513.40
2023-09-17T02:49:11.621Z,100515.31
2023-09-17T02:51:43.003Z,100511.42
2023-09-17T02:54:12.375Z,100513.95
2023-09-17T02:56:43.379Z,100515.02
2023-09-17T02:59:17.559Z,100518.70
2023-09-17T03:01:56.334Z,100520.10
2023-09-17T03:04:27.586Z,100521.45
2023-09-17T03:07:00.220Z,100523.16
2023-09-17T03:09:32.208Z,100526.21
2023-09-17T03:12:02.551Z,100525.55
2023-09-17T03:14:34.350Z,100523.99
2023-09-17T03:17:04.194Z,100528.13
2023-09-17T03:19:35.302Z,100528.45
2023-09-17T03:22:06.837Z,100529.96
2023-09-17T03:24:39.304Z,100529.02
2023-09-17T03:27:08.225Z,100527.50
2023-09-17T03:29:38.337Z,100534.34
2023-09-17T03:32:06.080Z,100528.16
2023-09-17T03:34:35.264Z,100528.79
2023-09-17T03:37:03.730Z,100529.23
2023-09-17T03:39:31.924Z,100530.02
2023-09-17T03:41:59.840Z,100532.42
2023-09-17T03:44:32.056Z,100528.29
2023-09-17T03:47:02.031Z,100527.02
2023-09-17T03:49:31.134Z,100526.05
2023-09-17T03:51:58.857Z,100522.44
2023-09-17T03:54:28.192Z,100523.86
2023-09-17T03:56:55.815Z,100522.77
2023-09-17T03:59:23.398Z,100521.83
2023-09-17T04:01:50.971Z,100522.56
2023-09-17T04:04:19.198Z,100520.27
2023-09-17T04:06:47.619Z,100520.92
2023-09-17T04:09:17.295Z,100517.60
2023-09-17T04:11:45.098Z,100516.71
2023-09-17T04:14:13.360Z,100519.15
2023-09-17T04:16:46.544Z,100521.21
2023-09-17T04:19:16.953Z,100522.64
2023-09-17T04:21:45.904Z,100521.96
2023-09-17T04:24:13.428Z,100524.10
2023-09-17T04:26:49.615Z,100525.82
2023-09-17T04:29:33.199Z,100527.27
2023-09-17T04:32:21.446Z,100525.66
2023-09-17T04:35:04.134Z,100526.48
2023-09-17T04:37:57.220Z,100528.77
2023-09-17T04:40:52.306Z,100531.20
2023-09-17T04:43:23.979Z,100529.44
2023-09-17T04:45:52.100Z,100529.32
2023-09-17T04:48:33.877Z,100529.77
2023-09-17T04:51:01.336Z,100531.14
2023-09-17T04:53:31.115Z,100535.37
2023-09-17T04:55:59.772Z,100535.97
2023-09-17T04:58:34.692Z,100533.08
2023-09-17T05:01:04.114Z,100536.05
2023-09-17T05:03:33.502Z,100535.87
2023-09-17T05:06:01.107Z,100542.67
2023-09-17T05:08:29.195Z,100547.20
2023-09-17T05:10:57.384Z,100550.51
2023-09-17T05:13:25.137Z,100549.99
2023-09-17T05:15:55.385Z,100551.16
2023-09-17T05:18:39.034Z,100552.44
2023-09-17T05:21:19.257Z,100553.95
2023-09-17T05:24:11.193Z,100555.20
2023-09-17T05:26:46.349Z,100561.89
2023-09-17T05:29:18.018Z,100558.71
2023-09-17T05:31:46.817Z,100561.13
2023-09-17T05:34:15.746Z,100560.70
2023-09-17T05:36:43.153Z,100565.96
2023-09-17T05:39:10.967Z,100572.63
2023-09-17T05:41:41.484Z,100569.42
2023-09-17T05:44:09.649Z,100569.54
2023-09-17T05:46:37.616Z,100573.34
2023-09-17T05:49:06.189Z,100572.79
2023-09-17T05:51:34.521Z,100574.34
2023-09-17T05:54:02.706Z,100571.81
2023-09-17T05:56:30.207Z,100574.11
2023-09-17T05:58:58.359Z,100577.30
2023-09-17T06:01:26.111Z,100581.68
2023-09-17T06:03:55.651Z,100581.47
2023-09-17T06:06:25.498Z,100582.98
2023-09-17T06:08:56.486Z,100583.73
2023-09-17T06:11:25.962Z,100582.66
2023-09-17T06:13:54.666Z,100578.73
2023-09-17T06:16:24.112Z,100577.39
2023-09-17T06:18:53.061Z,100578.70
2023-09-17T06:21:29.124Z,100576.55
2023-09-17T06:23:59.651Z,100579.71
2023-09-17T06:26:33.533Z,100583.75
2023-09-17T06:29:06.036Z,100590.14
2023-09-17T06:31:35.326Z,100592.86
2023-09-17T06:34:28.555Z,100589.71
2023-09-17T06:37:16.627Z,100589.38
2023-09-17T06:40:12.994Z,100594.57
2023-09-17T06:42:42.450Z,100596.39
2023-09-17T06:45:20.452Z,100598.44
2023-09-17T06:51:04.445Z,100599.15
2023-09-17T06:53:49.565Z,100603.80
2023-09-17T07:08:28.957Z,100610.09
2023-09-17T07:11:08.462Z,100606.15
2023-09-17T07:13:45.784Z,100603.96
2023-09-17T07:16:16.872Z,100602.30
2023-09-17T07:18:52.469Z,100600.60
2023-09-17T07:21:22.603Z,100604.96
2023-09-17T07:23:53.762Z,100600.96
2023-09-17T07:26:22.515Z,100604.50
2023-09-17T07:28:51.411Z,100606.27
2023-09-17T07:31:20.011Z,100603.69
2023-09-17T07:33:48.669Z,100602.13
2023-09-17T07:36:25.075Z,100599.73
2023-09-17T07:38:52.433Z,100599.17
2023-09-17T07:41:20.784Z,100599.99
2023-09-17T07:43:47.953Z,100601.48
2023-09-17T07:46:18.587Z,100596.48
2023-09-17T07:48:48.273Z,100596.52
2023-09-17T07:51:17.115Z,100594.28
2023-09-17T07:53:44.748Z,100593.55
2023-09-17T07:56:11.899Z,100594.71
2023-09-17T07:58:39.483Z,100599.15
2023-09-17T08:01:12.706Z,100591.89
2023-09-17T08:03:41.377Z,100592.19
2023-09-17T08:06:08.722Z,100594.02
2023-09-17T08:08:35.955Z,100589.92
2023-09-17T08:11:04.470Z,100589.73
2023-09-17T08:13:41.652Z,100592.10
2023-09-17T08:16:09.808Z,100597.89
2023-09-17T08:18:36.966Z,100597.72
2023-09-17T08:21:04.867Z,100598.70
2023-09-17T08:23:31.947Z,100596.28
2023-09-17T08:25:59.945Z,100602.85
2023-09-17T08:28:28.726Z,100603.36
2023-09-17T08:30:56.808Z,100599.42
2023-09-17T08:33:23.955Z,100596.16
2023-09-17T08:35:51.202Z,100597.41
2023-09-17T08:38:19.661Z,100598.58
2023-09-17T08:40:48.267Z,100604.39
2023-09-17T08:43:17.058Z,100606.23
2023-09-17T08:45:44.195Z,100609.02
2023-09-17T08:48:11.824Z,100603.54
2023-09-17T08:50:40.319Z,100600.59
2023-09-17T08:53:10.882Z,100598.95
2023-09-17T08:55:38.823Z,100601.79
2023-09-17T08:58:15.570Z,100600.90
2023-09-17T09:00:50.523Z,100600.98
2023-09-17T09:03:21.713Z,100602.22
2023-09-17T09:05:51.592Z,100604.63
2023-09-17T09:08:20.262Z,100602.52
2023-09-17T09:10:51.451Z,100600.43
2023-09-17T09:13:19.666Z,100599.33
2023-09-17T09:15:48.185Z,100600.48
2023-09-17T09:18:15.711Z,100598.85
2023-09-17T09:20:43.171Z,100598.44
2023-09-17T09:23:10.217Z,100598.89
2023-09-17T09:25:38.788Z,100600.45
2023-09-17T09:28:06.723Z,100599.98
2023-09-17T09:30:37.275Z,100599.59
2023-09-17T09:33:05.277Z,100598.84
2023-09-17T09:35:33.281Z,100601.16
2023-09-17T09:38:02.041Z,100601.58
2023-09-17T09:40:30.257Z,100603.58
2023-09-17T09:42:58.129Z,100602.98
2023-09-17T09:45:28.243Z,100602.84
2023-09-17T09:47:57.861Z,100602.05
2023-09-17T09:50:27.611Z,100600.08
2023-09-17T09:52:55.825Z,100599.98
2023-09-17T09:55:27.986Z,100599.83
2023-09-17T09:57:56.267Z,100600.67
2023-09-17T10:00:27.248Z,100598.98
2023-09-17T10:02:55.489Z,100599.48
2023-09-17T10:05:35.264Z,100597.55
2023-09-17T10:08:05.203Z,100590.25
2023-09-17T10:10:33.421Z,100588.33
2023-09-17T10:13:05.796Z,100587.48
2023-09-17T10:15:35.831Z,100580.49
2023-09-17T10:18:10.287Z,100586.00
2023-09-17T10:20:39.520Z,100587.41
2023-09-17T10:23:08.434Z,100580.89
2023-09-17T10:25:37.121Z,100584.03
2023-09-17T10:28:06.364Z,100582.15
2023-09-17T10:30:35.495Z,100580.09
2023-09-17T10:33:05.993Z,100581.51
2023-09-17T10:35:35.009Z,100584.97
2023-09-17T10:38:05.476Z,100583.07
2023-09-17T10:40:35.737Z,100581.73
2023-09-17T10:43:06.884Z,100582.64
2023-09-17T10:45:41.875Z,100581.58
2023-09-17T10:48:12.173Z,100579.30
2023-09-17T10:50:42.669Z,100575.94
2023-09-17T10:53:11.383Z,100572.17
2023-09-17T10:55:45.372Z,100566.80
2023-09-17T10:58:21.352Z,100562.86
2023-09-17T11:00:50.725Z,100573.75
2023-09-17T11:03:23.357Z,100573.63
2023-09-17T11:05:54.044Z,100573.70
2023-09-17T11:08:22.499Z,100574.33
2023-09-17T11:10:51.060Z,100573.03
2023-09-17T11:13:20.637Z,100574.80
2023-09-17T11:15:52.112Z,100576.34
2023-09-17T11:18:20.917Z,100569.86
2023-09-17T11:21:07.517Z,100571.33
2023-09-17T11:23:45.223Z,100569.09
2023-09-17T11:26:15.124Z,100569.38
2023-09-17T11:28:43.522Z,100569.73
2023-09-17T11:31:14.861Z,100576.20
2023-09-17T11:33:43.117Z,100573.08
2023-09-17T11:36:12.513Z,100576.77
2023-09-17T11:38:46.402Z,100576.92
2023-09-17T11:41:16.551Z,100575.97
2023-09-17T11:43:54.744Z,100576.42
2023-09-17T11:46:23.998Z,100578.73
2023-09-17T11:48:52.302Z,100575.25
2023-09-17T11:51:28.812Z,100579.20
2023-09-17T11:54:01.175Z,100575.96
2023-09-17T11:56:31.874Z,100574.77
2023-09-17T11:59:05.468Z,100576.59
2023-09-17T12:01:46.352Z,100575.45
2023-09-17T12:04:14.860Z,100577.66
2023-09-17T12:06:44.471Z,100578.95
2023-09-17T12:09:29.324Z,100577.89
2023-09-17T12:12:00.982Z,100579.09
2023-09-17T12:14:28.724Z,100580.61
2023-09-17T12:16:56.630Z,100578.20
2023-09-17T12:19:25.413Z,100578.33
2023-09-17T12:21:55.903Z,100577.03
2023-09-17T12:24:48.055Z,100581.18
2023-09-17T12:27:25.861Z,100580.80
2023-09-17T12:29:54.669Z,100581.20
2023-09-17T12:32:27.426Z,100579.73
2023-09-17T12:34:55.738Z,100579.23
2023-09-17T12:37:26.366Z,100583.90
2023-09-17T12:39:53.876Z,100577.23
2023-09-17T12:42:24.889Z,100578.34
2023-09-17T12:44:54.367Z,100570.89
2023-09-17T12:47:25.571Z,100570.22
2023-09-17T12:50:02.489Z,100573.05
2023-09-17T12:52:29.717Z,100574.19
2023-09-17T12:55:01.814Z,100571.98
2023-09-17T12:57:31.074Z,100574.55
2023-09-17T12:59:59.790Z,100571.30
2023-09-17T13:02:32.918Z,100577.31
2023-09-17T13:05:05.164Z,100574.98
2023-09-17T13:07:40.037Z,100577.59
2023-09-17T13:10:09.275Z,100575.12
2023-09-17T13:12:37.221Z,100578.79
2023-09-17T13:15:05.628Z,100575.91
2023-09-17T13:17:33.516Z,100577.52
2023-09-17T13:20:01.021Z,100579.45
2023-09-17T13:22:30.715Z,100580.30
2023-09-17T13:24:58.226Z,100577.05
2023-09-17T13:27:30.358Z,100578.65
2023-09-17T13:29:59.045Z,100573.33
2023-09-17T13:32:27.523Z,100574.38
2023-09-17T13:34:54.724Z,100572.24
2023-09-17T13:37:22.796Z,100571.64
2023-09-17T13:39:50.732Z,100570.00
2023-09-17T13:42:19.354Z,100571.61
2023-09-17T13:44:47.533Z,100571.04
2023-09-17T13:47:15.444Z,100573.95
2023-09-17T13:49:42.968Z,100573.26
2023-09-17T13:52:11.337Z,100567.90
2023-09-17T13:54:40.074Z,100568.77
2023-09-17T13:57:07.769Z,100568.03
2023-09-17T13:59:36.783Z,100565.23
2023-09-17T14:02:05.755Z,100570.24
2023-09-17T14:04:33.906Z,100565.23
2023-09-17T14:07:01.101Z,100566.27
2023-09-17T14:09:28.235Z,100560.95
2023-09-17T14:11:56.123Z,100561.48
2023-09-17T14:14:23.857Z,100559.70
2023-09-17T14:16:51.130Z,100557.02
2023-09-17T14:19:19.794Z,100560.73
2023-09-17T14:21:47.923Z,100561.74
2023-09-17T14:24:15.727Z,100562.25
2023-09-17T14:26:44.418Z,100560.11
2023-09-17T14:29:11.719Z,100554.23
2023-09-17T14:31:40.959Z,100552.55
2023-09-17T14:34:10.811Z,100554.09
2023-09-17T14:36:38.699Z,100555.83
2023-09-17T14:39:05.835Z,100556.06
2023-09-17T14:41:33.031Z,100559.41
2023-09-17T14:44:00.631Z,100562.63
2023-09-17T14:46:27.839Z,100563.16
2023-09-17T14:48:55.332Z,100562.69
2023-09-17T14:51:22.834Z,100561.98
2023-09-17T14:53:50.670Z,100558.81
2023-09-17T14:56:17.878Z,100555.86
2023-09-17T14:58:46.152Z,100556.23
2023-09-17T15:01:30.337Z,100554.04
2023-09-17T15:04:01.478Z,100555.86
2023-09-17T15:06:30.164Z,100556.83
2023-09-17T15:09:00.457Z,100553.56
2023-09-17T15:11:27.624Z,100555.20
2023-09-17T15:13:54.762Z,100560.20
2023-09-17T15:16:22.197Z,100551.92
2023-09-17T15:18:49.682Z,100550.81
2023-09-17T15:21:17.204Z,100540.07
2023-09-17T15:23:44.877Z,100539.61
2023-09-17T15:26:12.927Z,100545.13
2023-09-17T15:28:41.045Z,100555.30
2023-09-17T15:31:08.191Z,100557.20
2023-09-17T15:33:39.502Z,100559.31
2023-09-17T15:36:09.045Z,100560.19
2023-09-17T15:38:36.371Z,100557.11
2023-09-17T15:41:05.768Z,100556.66
2023-09-17T15:43:36.430Z,100554.60
2023-09-17T15:46:07.071Z,100544.19
2023-09-17T15:48:36.384Z,100543.48
2023-09-17T15:51:07.277Z,100535.61
2023-09-17T15:53:34.546Z,100538.42
2023-09-17T15:56:01.993Z,100535.91
2023-09-17T15:58:29.866Z,100535.08
2023-09-17T16:00:58.886Z,100535.32
2023-09-17T16:03:27.302Z,100531.85
2023-09-17T16:05:56.036Z,100535.24
2023-09-17T16:08:23.863Z,100539.01
2023-09-17T16:10:52.104Z,100537.00
2023-09-17T16:13:19.762Z,100537.61
2023-09-17T16:15:46.871Z,100531.63
2023-09-17T16:18:14.590Z,100529.65
2023-09-17T16:20:42.330Z,100530.35
2023-09-17T16:23:13.623Z,100530.41
2023-09-17T16:25:41.485Z,100532.36
2023-09-17T16:28:09.424Z,100533.29
2023-09-17T16:30:36.620Z,100530.05
2023-09-17T16:33:04.635Z,100530.01
2023-09-17T16:35:32.556Z,100525.34
2023-09-17T16:37:59.904Z,100531.55
2023-09-17T16:40:27.135Z,100527.84
2023-09-17T16:43:07.296Z,100523.95
2023-09-17T16:45:37.968Z,100523.56
2023-09-17T16:48:06.555Z,100526.39
2023-09-17T16:50:33.993Z,100518.82
2023-09-17T16:53:01.376Z,100517.28
2023-09-17T16:55:28.751Z,100520.98
2023-09-17T16:57:56.920Z,100519.12
2023-09-17T17:00:24.601Z,100521.27
2023-09-17T17:02:53.154Z,100523.40
2023-09-17T17:05:22.659Z,100518.11
2023-09-17T17:07:51.151Z,100520.87
2023-09-17T17:10:18.913Z,100522.48
2023-09-17T17:12:47.242Z,100529.55
2023-09-17T17:15:15.295Z,100533.90
2023-09-17T17:17:43.024Z,100530.59
2023-09-17T17:20:10.465Z,100533.96
2023-09-17T17:22:46.287Z,100530.10
2023-09-17T17:25:13.895Z,100534.77
2023-09-17T17:27:41.682Z,100537.65
2023-09-17T17:30:12.584Z,100538.41
2023-09-17T17:32:45.563Z,100544.14
2023-09-17T17:35:14.884Z,100543.93
2023-09-17T17:37:44.503Z,100543.17
2023-09-17T17:40:14.667Z,100542.42
2023-09-17T17:42:41.865Z,100543.20
2023-09-17T17:45:14.338Z,100545.48
2023-09-17T17:47:43.056Z,100545.31
2023-09-17T17:50:14.636Z,100546.37
2023-09-17T17:52:48.619Z,100548.30
2023-09-17T17:55:17.028Z,100545.06
2023-09-17T17:57:46.674Z,100547.51
2023-09-17T18:00:19.092Z,100549.16
2023-09-17T18:02:49.159Z,100550.61
2023-09-17T18:05:26.233Z,100553.73
2023-09-17T18:07:55.502Z,100550.52
2023-09-17T18:10:24.333Z,100548.98
2023-09-17T18:12:57.828Z,100548.17
2023-09-17T18:15:28.879Z,100550.00
2023-09-17T18:17:57.163Z,100549.97
2023-09-17T18:20:41.403Z,100549.45
2023-09-17T18:23:21.224Z,100548.50
2023-09-17T18:25:50.754Z,100552.01
2023-09-17T18:28:24.694Z,100552.02
2023-09-17T18:30:55.508Z,100552.40
2023-09-17T18:33:25.797Z,100553.77
2023-09-17T18:35:56.607Z,100557.22
2023-09-17T18:38:24.035Z,100553.15
2023-09-17T18:40:55.685Z,100551.58
2023-09-17T18:43:29.934Z,100548.77
2023-09-17T18:46:04.854Z,100549.02
2023-09-17T18:48:34.937Z,100552.84
2023-09-17T18:51:21.738Z,100550.60
2023-09-17T18:53:54.602Z,100548.74
2023-09-17T18:57:06.807Z,100549.69
2023-09-17T18:59:46.248Z,100547.98
2023-09-17T19:02:18.456Z,100548.71
2023-09-17T19:04:49.270Z,100545.20
2023-09-17T19:07:39.963Z,100543.41
2023-09-17T19:10:22.132Z,100542.70
2023-09-17T19:13:11.499Z,100546.59
2023-09-17T19:15:44.556Z,100549.16
2023-09-17T19:18:26.845Z,100548.27
2023-09-17T19:21:24.070Z,100547.50
2023-09-17T19:24:17.474Z,100548.98
2023-09-17T19:27:26.971Z,100546.73
2023-09-17T19:30:16.887Z,100545.05
2023-09-17T19:32:53.740Z,100542.14
2023-09-17T19:35:37.984Z,100541.55
2023-09-17T19:38:36.632Z,100538.89
2023-09-17T19:41:37.416Z,100535.61
2023-09-17T19:44:31.267Z,100531.65
2023-09-17T19:50:15.929Z,100526.45
2023-09-17T19:53:30.428Z,100522.84
2023-09-17T19:56:36.489Z,100520.85
2023-09-17T20:03:05.646Z,100516.55
2023-09-17T20:09:45.018Z,100512.02
2023-09-17T20:12:51.956Z,100510.89
2023-09-17T20:16:07.935Z,100510.43
2023-09-17T20:18:56.303Z,100508.95
2023-09-17T20:25:09.360Z,100505.95
2023-09-17T20:35:42.653Z,100511.88
2023-09-17T20:39:03.779Z,100511.55
2023-09-17T20:54:06.701Z,100507.38
2023-09-17T21:20:24.749Z,100494.55
2023-09-17T21:29:32.485Z,100494.13
2023-09-17T21:32:18.128Z,100492.38
2023-09-17T21:47:32.033Z,100484.77
2023-09-17T21:50:26.380Z,100482.41
2023-09-17T21:53:33.545Z,100485.18
2023-09-17T22:02:21.197Z,100486.31
2023-09-17T22:05:20.439Z,100486.76
2023-09-17T22:08:04.837Z,100491.52
2023-09-17T22:10:55.245Z,100488.89
2023-09-17T22:13:40.050Z,100484.69
2023-09-17T22:16:26.147Z,100482.98
2023-09-17T22:25:18.862Z,100476.77
2023-09-17T22:28:17.065Z,100473.06
2023-09-17T22:31:01.499Z,100477.39
2023-09-17T22:33:48.369Z,100473.03
2023-09-17T22:36:21.548Z,100471.22
2023-09-17T22:38:55.950Z,100468.09
2023-09-17T22:41:31.355Z,100470.09
2023-09-17T22:46:57.481Z,100475.34
2023-09-17T22:49:44.647Z,100472.38
2023-09-17T22:58:08.815Z,100471.98
2023-09-17T23:00:38.850Z,100471.20
2023-09-17T23:03:08.948Z,100471.09
2023-09-17T23:05:41.478Z,100470.63
2023-09-17T23:08:09.320Z,100470.02
2023-09-17T23:10:37.960Z,100469.22
2023-09-17T23:13:09.212Z,100468.14
2023-09-17T23:15:44.829Z,100466.92
2023-09-17T23:18:17.542Z,100470.37
2023-09-17T23:20:56.885Z,100464.76
2023-09-17T23:23:29.255Z,100462.70
2023-09-17T23:26:02.890Z,100468.65
2023-09-17T23:28:44.086Z,100471.78
2023-09-17T23:31:19.511Z,100477.86
2023-09-17T23:33:52.702Z,100468.61
2023-09-17T23:36:35.228Z,100469.73
2023-09-17T23:39:12.370Z,100469.91
2023-09-17T23:41:44.511Z,100465.98
2023-09-17T23:44:14.377Z,100462.98
2023-09-17T23:46:54.268Z,100463.80
2023-09-17T23:49:23.130Z,100464.16
2023-09-17T23:51:51.699Z,100461.86
2023-09-17T23:54:20.533Z,100458.98
2023-09-17T23:56:49.842Z,100453.02
2023-09-17T23:59:18.959Z,100452.51
